Hay múltiples Alarmas Climaticas   Haga clic aquí para obtener mas informacion

Nearby METAR Reports

 

KSJC - San Jose, California, USA
Distance from station: NE 14km
Actualización: 20/05/2018 14:53
Cubierto
Cubierto
 Viento del OSO
Viento: OSO 11 km/h
Temperatura: 13°C
Rocío: 8°C
Humedad: 72%
Barómetro: 1015.6 hPa
Clouds: Cubierto
Visibility: 16 km
Cloud details: Cubierto 610 m
2018/05/20 12:53 KSJC 201253Z 25006KT 10SM OVC020 13/08 A2999 RMK AO2 SLP155 T01280083 $
KNUQ - Moffett Nas/Mtn, California, USA
Distance from station: N 14km
Actualización: 20/05/2018 14:56
Cubierto
Cubierto
 Viento del ONO
Viento: ONO 11 km/h
Temperatura: 12°C
Rocío: 8°C
Humedad: 77%
Barómetro: 1015.9 hPa
Clouds: Cubierto
Visibility: 16 km
Cloud details: Cubierto 701 m
2018/05/20 12:56 KNUQ 201256Z 30006KT 10SM OVC023 12/08 A3000 RMK AO2 SLP160 T01220083
 
KPAO - Palo Alto, California, USA
Distance from station: NNO 23km
Actualización: 20/05/2018 05:47
NOT Current
Muy nuboso
Muy nuboso
 Viento del O
Viento: O 19 km/h
Barómetro: 1015.6 hPa
Clouds: Muy nuboso
Visibility: 16 km
Cloud details: Muy nuboso 671 m
2018/05/20 03:47 KPAO 200347Z 27010KT 10SM BKN022 A2999 RMK LAST
KRHV - San Jose/Reid, California, USA
Distance from station: ENE 19km
Actualización: 20/05/2018 06:47
NOT Current
Parcialmente nuboso
Parcialmente nuboso
 Viento del NNO
Viento: NNO 19 km/h
Temperatura: 13°C
Rocío: 8°C
Humedad: 72%
Barómetro: 1015.2 hPa
Clouds: Parcialmente nuboso
Visibility: 16 km
Cloud details: Parcialmente nuboso 914 m
2018/05/20 04:47 KRHV 200447Z 33010KT 10SM SCT030 13/08 A2998 RMK LAST
 
KOAK - Oakland, California, USA
Distance from station: NNO 50km
Actualización: 20/05/2018 14:53
Muy nuboso
Muy nuboso
 Viento del O
Viento: O 33 km/h
Temperatura: 12°C
Rocío: 9°C
Humedad: 82%
Barómetro: 1014.6 hPa
Clouds: Muy nuboso
Visibility: 16 km
Cloud details: Muy nuboso 518 m
2018/05/20 12:53 KOAK 201253Z 26018KT 10SM BKN017 12/09 A2996 RMK AO2 SLP146 T01220089
KSQL - San Carlos Airpo, California, USA
Distance from station: NO 34km
Actualización: 20/05/2018 15:15
Cubierto
Cubierto
 Viento del O
Viento: O 17 km/h
Temperatura: 12°C
Rocío: 8°C
Humedad: 77%
Barómetro: 1015.6 hPa
Clouds: Cubierto
Visibility: 16 km
Cloud details: Cubierto 610 m
2018/05/20 13:15 KSQL 201315Z AUTO 26009KT 10SM OVC020 12/08 A2999 RMK AO2
 
KSFO - San Francisco, California, USA
Distance from station: NO 49km
Actualización: 01/01/1970 01:00
NOT Current
unable to load KSFO data RC=404 Not Found
unable to load KSFO data RC=404 Not Found
 
KE16 - San Martin, California, USA
Distance from station: ESE 43km
Actualización: 20/05/2018 15:15
Cubierto
Cubierto
 Viento del ONO
Viento: ONO 11 km/h
Temperatura: 12°C
Rocío: 8°C
Humedad: 77%
Barómetro: 1016.3 hPa
Clouds: Cubierto
Visibility: 16 km
Cloud details: Cubierto 640 m
2018/05/20 13:15 KE16 201315Z AUTO 29006KT 10SM OVC021 12/08 A3001 RMK AO2
 
KWVI - Watsonville, California, USA
Distance from station: SSE 44km
Actualización: 20/05/2018 14:53
Cubierto
Cubierto
 Viento del calm
Viento: Calma
Temperatura: 11°C
Rocío: 8°C
Humedad: 82%
Barómetro: 1015.6 hPa
Clouds: Cubierto
Visibility: 14 km
Cloud details: Cubierto 701 m
2018/05/20 12:53 KWVI 201253Z AUTO 00000KT 9SM OVC023 11/08 A2999 RMK AO2 SLP157 T01110083
KHAF - Half Moon Bay, California, USA
Distance from station: ONO 50km
Actualización: 20/05/2018 15:15
Cubierto
Cubierto
 Viento del NNO
Viento: NNO 19 km/h, Racha: 28 km/h
Temperatura: 12°C
Rocío: 8°C
Humedad: 77%
Barómetro: 1016.3 hPa
Clouds: Cubierto
Visibility: 13 km
Cloud details: Cubierto 518 m
2018/05/20 13:15 KHAF 201315Z AUTO 33010G15KT 8SM OVC017 12/08 A3001 RMK AO2
 
KHWD - Hayward, California, USA
Distance from station: N 44km
Actualización: 20/05/2018 14:54
Cubierto
Cubierto
 Viento del O
Viento: O 26 km/h
Temperatura: 12°C
Rocío: 8°C
Humedad: 77%
Barómetro: 1015.2 hPa
Clouds: Cubierto
Visibility: 16 km
Cloud details: Cubierto 549 m
2018/05/20 12:54 KHWD 201254Z AUTO 27014KT 10SM OVC018 12/08 A2998 RMK AO2 SLP160 T01220078
KLVK - Livermore, California, USA
Distance from station: NNE 51km
Actualización: 20/05/2018 14:53
Cubierto
Cubierto
 Viento del OSO
Viento: OSO 26 km/h
Temperatura: 11°C
Rocío: 11°C
Humedad: 100%
Barómetro: 1014.6 hPa
Clouds: Cubierto
Visibility: 16 km
Cloud details: Cubierto 335 m
2018/05/20 12:53 KLVK 201253Z AUTO 24014KT 10SM OVC011 11/11 A2996 RMK AO2 SLP144 T01110106